sensor_id;sensor_type;location;lat;lon;timestamp;pressure;altitude;pressure_sealevel;temperature
71640;BMP280;60912;48.968;10.124;2023-07-29T00:01:51;96253.47;;;19.09
71640;BMP280;60912;48.968;10.124;2023-07-29T00:04:27;96249.28;;;19.08
71640;BMP280;60912;48.968;10.124;2023-07-29T00:07:21;96257.75;;;19.10
71640;BMP280;60912;48.968;10.124;2023-07-29T00:09:49;96250.63;;;19.07
71640;BMP280;60912;48.968;10.124;2023-07-29T00:12:20;96248.69;;;18.98
71640;BMP280;60912;48.968;10.124;2023-07-29T00:14:48;96248.09;;;18.88
71640;BMP280;60912;48.968;10.124;2023-07-29T00:17:19;96241.19;;;18.89
71640;BMP280;60912;48.968;10.124;2023-07-29T00:19:50;96225.28;;;18.91
71640;BMP280;60912;48.968;10.124;2023-07-29T00:22:18;96232.22;;;18.90
71640;BMP280;60912;48.968;10.124;2023-07-29T00:25:08;96247.59;;;18.91
71640;BMP280;60912;48.968;10.124;2023-07-29T00:27:59;96243.75;;;18.85
71640;BMP280;60912;48.968;10.124;2023-07-29T00:30:44;96240.00;;;18.80
71640;BMP280;60912;48.968;10.124;2023-07-29T00:33:22;96231.13;;;18.84
71640;BMP280;60912;48.968;10.124;2023-07-29T00:36:04;96228.69;;;18.90
71640;BMP280;60912;48.968;10.124;2023-07-29T00:38:32;96230.38;;;18.95
71640;BMP280;60912;48.968;10.124;2023-07-29T00:41:11;96212.41;;;18.86
71640;BMP280;60912;48.968;10.124;2023-07-29T00:43:44;96213.03;;;18.85
71640;BMP280;60912;48.968;10.124;2023-07-29T00:46:12;96208.69;;;18.82
71640;BMP280;60912;48.968;10.124;2023-07-29T00:48:40;96215.09;;;18.84
71640;BMP280;60912;48.968;10.124;2023-07-29T00:51:15;96223.22;;;18.92
71640;BMP280;60912;48.968;10.124;2023-07-29T00:53:49;96233.78;;;18.93
71640;BMP280;60912;48.968;10.124;2023-07-29T00:56:18;96237.31;;;18.94
71640;BMP280;60912;48.968;10.124;2023-07-29T00:58:51;96227.66;;;18.97
71640;BMP280;60912;48.968;10.124;2023-07-29T01:01:53;96219.44;;;18.99
71640;BMP280;60912;48.968;10.124;2023-07-29T01:04:30;96217.03;;;18.93
71640;BMP280;60912;48.968;10.124;2023-07-29T01:07:23;96219.34;;;18.85
71640;BMP280;60912;48.968;10.124;2023-07-29T01:10:02;96217.47;;;18.64
71640;BMP280;60912;48.968;10.124;2023-07-29T01:15:32;96214.97;;;18.34
71640;BMP280;60912;48.968;10.124;2023-07-29T01:18:18;96206.00;;;18.35
71640;BMP280;60912;48.968;10.124;2023-07-29T01:21:12;96201.63;;;18.44
71640;BMP280;60912;48.968;10.124;2023-07-29T01:23:41;96197.00;;;18.48
71640;BMP280;60912;48.968;10.124;2023-07-29T01:26:17;96196.00;;;18.55
71640;BMP280;60912;48.968;10.124;2023-07-29T01:29:04;96195.38;;;18.68
71640;BMP280;60912;48.968;10.124;2023-07-29T01:31:36;96194.25;;;18.74
71640;BMP280;60912;48.968;10.124;2023-07-29T01:34:29;96191.59;;;18.76
71640;BMP280;60912;48.968;10.124;2023-07-29T01:37:03;96181.50;;;18.82
71640;BMP280;60912;48.968;10.124;2023-07-29T01:39:34;96180.41;;;18.76
71640;BMP280;60912;48.968;10.124;2023-07-29T01:42:08;96177.72;;;18.78
71640;BMP280;60912;48.968;10.124;2023-07-29T01:44:39;96173.00;;;18.80
71640;BMP280;60912;48.968;10.124;2023-07-29T01:47:07;96179.75;;;18.89
71640;BMP280;60912;48.968;10.124;2023-07-29T01:49:36;96178.19;;;18.86
71640;BMP280;60912;48.968;10.124;2023-07-29T01:52:05;96175.41;;;18.86
71640;BMP280;60912;48.968;10.124;2023-07-29T01:57:27;96171.41;;;18.77
71640;BMP280;60912;48.968;10.124;2023-07-29T01:59:58;96168.78;;;18.67
71640;BMP280;60912;48.968;10.124;2023-07-29T02:02:55;96166.78;;;18.56
71640;BMP280;60912;48.968;10.124;2023-07-29T02:07:59;96159.63;;;18.53
71640;BMP280;60912;48.968;10.124;2023-07-29T02:10:33;96166.63;;;18.54
71640;BMP280;60912;48.968;10.124;2023-07-29T02:12:59;96161.53;;;18.62
71640;BMP280;60912;48.968;10.124;2023-07-29T02:18:20;96159.22;;;18.59
71640;BMP280;60912;48.968;10.124;2023-07-29T02:20:49;96157.38;;;18.63
71640;BMP280;60912;48.968;10.124;2023-07-29T02:23:41;96163.19;;;18.67
71640;BMP280;60912;48.968;10.124;2023-07-29T02:26:17;96164.16;;;18.72
71640;BMP280;60912;48.968;10.124;2023-07-29T02:29:03;96161.97;;;18.70
71640;BMP280;60912;48.968;10.124;2023-07-29T02:31:45;96160.41;;;18.67
71640;BMP280;60912;48.968;10.124;2023-07-29T02:34:11;96161.78;;;18.66
71640;BMP280;60912;48.968;10.124;2023-07-29T02:36:45;96162.09;;;18.73
71640;BMP280;60912;48.968;10.124;2023-07-29T02:39:20;96162.25;;;18.63
71640;BMP280;60912;48.968;10.124;2023-07-29T02:41:49;96166.97;;;18.60
71640;BMP280;60912;48.968;10.124;2023-07-29T02:44:18;96174.63;;;18.60
71640;BMP280;60912;48.968;10.124;2023-07-29T02:46:49;96172.34;;;18.56
71640;BMP280;60912;48.968;10.124;2023-07-29T02:49:22;96166.16;;;18.58
71640;BMP280;60912;48.968;10.124;2023-07-29T02:51:56;96161.53;;;18.62
71640;BMP280;60912;48.968;10.124;2023-07-29T02:54:28;96154.72;;;18.65
71640;BMP280;60912;48.968;10.124;2023-07-29T02:57:05;96156.38;;;18.70
71640;BMP280;60912;48.968;10.124;2023-07-29T02:59:34;96161.97;;;18.70
71640;BMP280;60912;48.968;10.124;2023-07-29T03:02:05;96161.97;;;18.70
71640;BMP280;60912;48.968;10.124;2023-07-29T03:07:22;96141.78;;;18.84
71640;BMP280;60912;48.968;10.124;2023-07-29T03:09:51;96137.44;;;18.81
71640;BMP280;60912;48.968;10.124;2023-07-29T03:12:22;96139.50;;;18.80
71640;BMP280;60912;48.968;10.124;2023-07-29T03:14:53;96139.63;;;18.82
71640;BMP280;60912;48.968;10.124;2023-07-29T03:17:31;96146.13;;;18.87
71640;BMP280;60912;48.968;10.124;2023-07-29T03:20:19;96135.13;;;18.77
71640;BMP280;60912;48.968;10.124;2023-07-29T03:22:54;96129.00;;;18.67
71640;BMP280;60912;48.968;10.124;2023-07-29T03:25:48;96134.34;;;18.63
71640;BMP280;60912;48.968;10.124;2023-07-29T03:28:30;96117.88;;;18.55
71640;BMP280;60912;48.968;10.124;2023-07-29T03:31:13;96111.81;;;18.47
71640;BMP280;60912;48.968;10.124;2023-07-29T03:33:50;96117.19;;;18.43
71640;BMP280;60912;48.968;10.124;2023-07-29T03:36:16;96111.63;;;18.43
71640;BMP280;60912;48.968;10.124;2023-07-29T03:38:55;96106.34;;;18.49
71640;BMP280;60912;48.968;10.124;2023-07-29T03:41:37;96112.09;;;18.40
71640;BMP280;60912;48.968;10.124;2023-07-29T03:44:06;96114.47;;;18.45
71640;BMP280;60912;48.968;10.124;2023-07-29T03:47:02;96100.75;;;18.49
71640;BMP280;60912;48.968;10.124;2023-07-29T03:52:19;96095.53;;;18.55
71640;BMP280;60912;48.968;10.124;2023-07-29T03:55:11;96096.13;;;18.65
71640;BMP280;60912;48.968;10.124;2023-07-29T03:57:36;96088.56;;;18.68
71640;BMP280;60912;48.968;10.124;2023-07-29T04:00:13;96095.50;;;18.67
71640;BMP280;60912;48.968;10.124;2023-07-29T04:02:38;96088.16;;;18.74
71640;BMP280;60912;48.968;10.124;2023-07-29T04:05:25;96087.81;;;18.79
71640;BMP280;60912;48.968;10.124;2023-07-29T04:08:00;96084.50;;;18.83
71640;BMP280;60912;48.968;10.124;2023-07-29T04:10:49;96085.25;;;18.97
71640;BMP280;60912;48.968;10.124;2023-07-29T04:13:25;96099.34;;;18.99
71640;BMP280;60912;48.968;10.124;2023-07-29T04:16:16;96094.09;;;19.05
71640;BMP280;60912;48.968;10.124;2023-07-29T04:18:49;96103.91;;;19.45
71640;BMP280;60912;48.968;10.124;2023-07-29T04:21:15;96100.78;;;20.50
71640;BMP280;60912;48.968;10.124;2023-07-29T04:23:44;96094.97;;;22.00
71640;BMP280;60912;48.968;10.124;2023-07-29T04:26:09;96087.19;;;23.44
71640;BMP280;60912;48.968;10.124;2023-07-29T04:28:40;96091.56;;;24.77
71640;BMP280;60912;48.968;10.124;2023-07-29T04:31:08;96078.09;;;25.74
71640;BMP280;60912;48.968;10.124;2023-07-29T04:33:40;96075.97;;;25.21
71640;BMP280;60912;48.968;10.124;2023-07-29T04:36:08;96080.25;;;24.30
71640;BMP280;60912;48.968;10.124;2023-07-29T04:38:37;96081.84;;;23.72
71640;BMP280;60912;48.968;10.124;2023-07-29T04:41:02;96097.63;;;23.22
71640;BMP280;60912;48.968;10.124;2023-07-29T04:46:27;96089.97;;;21.99
71640;BMP280;60912;48.968;10.124;2023-07-29T04:49:06;96091.34;;;21.17
71640;BMP280;60912;48.968;10.124;2023-07-29T04:51:37;96094.28;;;20.74
71640;BMP280;60912;48.968;10.124;2023-07-29T04:54:03;96083.63;;;20.42
71640;BMP280;60912;48.968;10.124;2023-07-29T04:56:39;96073.81;;;20.27
71640;BMP280;60912;48.968;10.124;2023-07-29T04:59:14;96074.53;;;20.27
71640;BMP280;60912;48.968;10.124;2023-07-29T05:01:44;96083.78;;;20.30
71640;BMP280;60912;48.968;10.124;2023-07-29T05:04:20;96090.59;;;20.27
71640;BMP280;60912;48.968;10.124;2023-07-29T05:06:57;96094.97;;;20.30
71640;BMP280;60912;48.968;10.124;2023-07-29T05:10:06;96097.66;;;20.28
71640;BMP280;60912;48.968;10.124;2023-07-29T05:12:46;96083.34;;;20.22
71640;BMP280;60912;48.968;10.124;2023-07-29T05:15:20;96084.19;;;20.11
71640;BMP280;60912;48.968;10.124;2023-07-29T05:17:49;96076.88;;;20.04
71640;BMP280;60912;48.968;10.124;2023-07-29T05:20:37;96079.47;;;20.00
71640;BMP280;60912;48.968;10.124;2023-07-29T05:23:14;96088.28;;;19.94
71640;BMP280;60912;48.968;10.124;2023-07-29T05:25:50;96096.25;;;20.00
71640;BMP280;60912;48.968;10.124;2023-07-29T05:28:37;96101.84;;;20.00
71640;BMP280;60912;48.968;10.124;2023-07-29T05:31:28;96118.31;;;19.80
71640;BMP280;60912;48.968;10.124;2023-07-29T05:33:56;96120.59;;;19.84
71640;BMP280;60912;48.968;10.124;2023-07-29T05:36:28;96125.03;;;19.89
71640;BMP280;60912;48.968;10.124;2023-07-29T05:39:12;96118.50;;;19.98
71640;BMP280;60912;48.968;10.124;2023-07-29T05:42:03;96125.25;;;19.93
71640;BMP280;60912;48.968;10.124;2023-07-29T05:44:50;96125.25;;;19.93
71640;BMP280;60912;48.968;10.124;2023-07-29T05:47:33;96140.38;;;19.88
71640;BMP280;60912;48.968;10.124;2023-07-29T05:50:11;96146.81;;;19.90
71640;BMP280;60912;48.968;10.124;2023-07-29T05:52:46;96146.06;;;19.90
71640;BMP280;60912;48.968;10.124;2023-07-29T05:55:12;96169.50;;;19.96
71640;BMP280;60912;48.968;10.124;2023-07-29T05:57:49;96164.19;;;19.89
71640;BMP280;60912;48.968;10.124;2023-07-29T06:00:36;96156.94;;;19.84
71640;BMP280;60912;48.968;10.124;2023-07-29T06:03:12;96161.69;;;19.67
71640;BMP280;60912;48.968;10.124;2023-07-29T06:05:48;96163.16;;;19.68
71640;BMP280;60912;48.968;10.124;2023-07-29T06:11:18;96139.13;;;19.63
71640;BMP280;60912;48.968;10.124;2023-07-29T06:14:04;96143.25;;;19.62
71640;BMP280;60912;48.968;10.124;2023-07-29T06:16:59;96117.28;;;19.73
71640;BMP280;60912;48.968;10.124;2023-07-29T06:19:26;96127.63;;;19.85
71640;BMP280;60912;48.968;10.124;2023-07-29T06:21:58;96124.81;;;19.85
71640;BMP280;60912;48.968;10.124;2023-07-29T06:24:35;96114.78;;;19.93
71640;BMP280;60912;48.968;10.124;2023-07-29T06:27:27;96110.44;;;20.17
71640;BMP280;60912;48.968;10.124;2023-07-29T06:30:04;96103.38;;;20.30
71640;BMP280;60912;48.968;10.124;2023-07-29T06:35:38;96097.59;;;20.55
71640;BMP280;60912;48.968;10.124;2023-07-29T06:38:11;96100.22;;;20.67
71640;BMP280;60912;48.968;10.124;2023-07-29T06:40:45;96099.81;;;20.88
71640;BMP280;60912;48.968;10.124;2023-07-29T06:43:27;96098.69;;;21.24
71640;BMP280;60912;48.968;10.124;2023-07-29T06:46:04;96099.84;;;21.66
71640;BMP280;60912;48.968;10.124;2023-07-29T06:48:34;96093.63;;;21.85
71640;BMP280;60912;48.968;10.124;2023-07-29T06:51:08;96102.56;;;22.31
71640;BMP280;60912;48.968;10.124;2023-07-29T06:53:44;96100.56;;;22.69
71640;BMP280;60912;48.968;10.124;2023-07-29T06:56:33;96098.97;;;23.01
71640;BMP280;60912;48.968;10.124;2023-07-29T06:59:02;96098.19;;;22.98
71640;BMP280;60912;48.968;10.124;2023-07-29T07:01:37;96109.88;;;23.11
71640;BMP280;60912;48.968;10.124;2023-07-29T07:04:16;96113.28;;;22.89
71640;BMP280;60912;48.968;10.124;2023-07-29T07:06:42;96107.44;;;22.66
71640;BMP280;60912;48.968;10.124;2023-07-29T07:09:19;96101.19;;;22.49
71640;BMP280;60912;48.968;10.124;2023-07-29T07:12:07;96109.69;;;22.52
71640;BMP280;60912;48.968;10.124;2023-07-29T07:14:49;96103.19;;;22.47
71640;BMP280;60912;48.968;10.124;2023-07-29T07:17:17;96098.25;;;22.45
71640;BMP280;60912;48.968;10.124;2023-07-29T07:19:46;96107.47;;;22.48
71640;BMP280;60912;48.968;10.124;2023-07-29T07:22:20;96108.81;;;22.47
71640;BMP280;60912;48.968;10.124;2023-07-29T07:24:46;96104.47;;;22.44
71640;BMP280;60912;48.968;10.124;2023-07-29T07:27:41;96110.25;;;22.66
71640;BMP280;60912;48.968;10.124;2023-07-29T07:30:32;96100.22;;;22.78
71640;BMP280;60912;48.968;10.124;2023-07-29T07:35:39;96106.56;;;23.16
71640;BMP280;60912;48.968;10.124;2023-07-29T07:38:29;96102.75;;;23.08
71640;BMP280;60912;48.968;10.124;2023-07-29T07:41:04;96105.94;;;23.18
71640;BMP280;60912;48.968;10.124;2023-07-29T07:43:34;96100.75;;;22.92
71640;BMP280;60912;48.968;10.124;2023-07-29T07:46:16;96105.53;;;22.70
71640;BMP280;60912;48.968;10.124;2023-07-29T07:49:10;96115.53;;;22.75
71640;BMP280;60912;48.968;10.124;2023-07-29T07:54:54;96122.78;;;22.45
71640;BMP280;60912;48.968;10.124;2023-07-29T07:57:29;96141.13;;;22.30
71640;BMP280;60912;48.968;10.124;2023-07-29T08:00:01;96144.47;;;22.09
71640;BMP280;60912;48.968;10.124;2023-07-29T08:02:44;96158.06;;;21.99
71640;BMP280;60912;48.968;10.124;2023-07-29T08:05:10;96155.84;;;21.64
71640;BMP280;60912;48.968;10.124;2023-07-29T08:07:51;96163.88;;;21.41
71640;BMP280;60912;48.968;10.124;2023-07-29T08:10:25;96157.34;;;21.05
71640;BMP280;60912;48.968;10.124;2023-07-29T08:12:54;96154.06;;;20.95
71640;BMP280;60912;48.968;10.124;2023-07-29T08:15:51;96156.53;;;20.89
71640;BMP280;60912;48.968;10.124;2023-07-29T08:18:23;96150.13;;;20.86
71640;BMP280;60912;48.968;10.124;2023-07-29T08:21:14;96143.16;;;20.71
71640;BMP280;60912;48.968;10.124;2023-07-29T08:23:55;96152.06;;;20.68
71640;BMP280;60912;48.968;10.124;2023-07-29T08:26:23;96145.06;;;20.53
71640;BMP280;60912;48.968;10.124;2023-07-29T08:31:54;96139.84;;;20.32
71640;BMP280;60912;48.968;10.124;2023-07-29T08:34:22;96144.25;;;20.37
71640;BMP280;60912;48.968;10.124;2023-07-29T08:36:54;96142.25;;;20.53
71640;BMP280;60912;48.968;10.124;2023-07-29T08:39:50;96148.03;;;20.71
71640;BMP280;60912;48.968;10.124;2023-07-29T08:42:36;96144.13;;;20.92
71640;BMP280;60912;48.968;10.124;2023-07-29T08:48:04;96145.59;;;21.24
71640;BMP280;60912;48.968;10.124;2023-07-29T08:50:44;96150.97;;;21.49
71640;BMP280;60912;48.968;10.124;2023-07-29T08:53:13;96148.66;;;21.61
71640;BMP280;60912;48.968;10.124;2023-07-29T08:55:52;96147.25;;;21.60
71640;BMP280;60912;48.968;10.124;2023-07-29T08:58:37;96144.91;;;21.55
71640;BMP280;60912;48.968;10.124;2023-07-29T09:01:16;96151.41;;;21.59
71640;BMP280;60912;48.968;10.124;2023-07-29T09:04:04;96157.63;;;21.73
71640;BMP280;60912;48.968;10.124;2023-07-29T09:07:04;96152.00;;;21.73
71640;BMP280;60912;48.968;10.124;2023-07-29T09:09:41;96159.78;;;21.90
71640;BMP280;60912;48.968;10.124;2023-07-29T09:12:10;96153.16;;;22.00
71640;BMP280;60912;48.968;10.124;2023-07-29T09:14:48;96157.06;;;22.26
71640;BMP280;60912;48.968;10.124;2023-07-29T09:17:25;96158.09;;;22.50
71640;BMP280;60912;48.968;10.124;2023-07-29T09:19:54;96154.25;;;22.94
71640;BMP280;60912;48.968;10.124;2023-07-29T09:22:26;96162.38;;;23.24
71640;BMP280;60912;48.968;10.124;2023-07-29T09:24:56;96155.91;;;23.39
71640;BMP280;60912;48.968;10.124;2023-07-29T09:27:43;96148.75;;;23.95
71640;BMP280;60912;48.968;10.124;2023-07-29T09:30:21;96151.69;;;24.18
71640;BMP280;60912;48.968;10.124;2023-07-29T09:32:57;96137.28;;;24.52
71640;BMP280;60912;48.968;10.124;2023-07-29T09:36:08;96139.84;;;24.89
71640;BMP280;60912;48.968;10.124;2023-07-29T09:38:37;96137.44;;;25.03
71640;BMP280;60912;48.968;10.124;2023-07-29T09:41:03;96138.47;;;25.37
71640;BMP280;60912;48.968;10.124;2023-07-29T09:43:39;96145.13;;;25.48
71640;BMP280;60912;48.968;10.124;2023-07-29T09:46:18;96139.38;;;25.70
71640;BMP280;60912;48.968;10.124;2023-07-29T09:48:46;96138.97;;;26.09
71640;BMP280;60912;48.968;10.124;2023-07-29T09:51:24;96138.50;;;25.91
71640;BMP280;60912;48.968;10.124;2023-07-29T09:53:55;96140.16;;;26.00
71640;BMP280;60912;48.968;10.124;2023-07-29T09:56:36;96148.78;;;26.34
71640;BMP280;60912;48.968;10.124;2023-07-29T09:59:22;96142.16;;;26.53
71640;BMP280;60912;48.968;10.124;2023-07-29T10:01:59;96134.94;;;25.90
71640;BMP280;60912;48.968;10.124;2023-07-29T10:04:38;96132.91;;;25.93
71640;BMP280;60912;48.968;10.124;2023-07-29T10:09:49;96133.66;;;26.83
71640;BMP280;60912;48.968;10.124;2023-07-29T10:12:39;96126.81;;;26.94
71640;BMP280;60912;48.968;10.124;2023-07-29T10:15:17;96130.69;;;27.08
71640;BMP280;60912;48.968;10.124;2023-07-29T10:17:49;96124.16;;;27.02
71640;BMP280;60912;48.968;10.124;2023-07-29T10:20:16;96115.78;;;27.06
71640;BMP280;60912;48.968;10.124;2023-07-29T10:26:07;96118.06;;;26.20
71640;BMP280;60912;48.968;10.124;2023-07-29T10:32:23;96130.69;;;26.77
71640;BMP280;60912;48.968;10.124;2023-07-29T10:35:41;96140.09;;;26.87
71640;BMP280;60912;48.968;10.124;2023-07-29T10:38:12;96122.34;;;26.83
71640;BMP280;60912;48.968;10.124;2023-07-29T10:40:52;96118.94;;;26.88
71640;BMP280;60912;48.968;10.124;2023-07-29T10:43:49;96113.53;;;26.68
71640;BMP280;60912;48.968;10.124;2023-07-29T10:46:30;96126.81;;;26.02
71640;BMP280;60912;48.968;10.124;2023-07-29T10:49:13;96127.19;;;25.91
71640;BMP280;60912;48.968;10.124;2023-07-29T10:51:40;96124.00;;;25.51
71640;BMP280;60912;48.968;10.124;2023-07-29T10:54:19;96127.19;;;25.37
71640;BMP280;60912;48.968;10.124;2023-07-29T10:56:58;96121.53;;;25.12
71640;BMP280;60912;48.968;10.124;2023-07-29T10:59:56;96136.25;;;25.10
71640;BMP280;60912;48.968;10.124;2023-07-29T11:02:44;96128.94;;;24.77
71640;BMP280;60912;48.968;10.124;2023-07-29T11:13:29;96183.88;;;21.96
71640;BMP280;60912;48.968;10.124;2023-07-29T11:16:03;96174.63;;;21.77
71640;BMP280;60912;48.968;10.124;2023-07-29T11:18:39;96163.88;;;21.87
71640;BMP280;60912;48.968;10.124;2023-07-29T11:21:07;96167.13;;;21.98
71640;BMP280;60912;48.968;10.124;2023-07-29T11:23:35;96166.50;;;22.17
71640;BMP280;60912;48.968;10.124;2023-07-29T11:26:04;96164.72;;;22.41
71640;BMP280;60912;48.968;10.124;2023-07-29T11:28:30;96165.31;;;22.90
71640;BMP280;60912;48.968;10.124;2023-07-29T11:30:58;96166.03;;;23.46
71640;BMP280;60912;48.968;10.124;2023-07-29T11:33:29;96170.34;;;23.88
71640;BMP280;60912;48.968;10.124;2023-07-29T11:35:57;96171.78;;;23.89
71640;BMP280;60912;48.968;10.124;2023-07-29T11:38:24;96163.16;;;23.83
71640;BMP280;60912;48.968;10.124;2023-07-29T11:41:07;96158.69;;;23.76
71640;BMP280;60912;48.968;10.124;2023-07-29T11:43:35;96166.75;;;23.66
71640;BMP280;60912;48.968;10.124;2023-07-29T11:46:06;96160.53;;;23.50
71640;BMP280;60912;48.968;10.124;2023-07-29T11:48:44;96164.25;;;23.74
71640;BMP280;60912;48.968;10.124;2023-07-29T11:51:14;96169.03;;;24.11
71640;BMP280;60912;48.968;10.124;2023-07-29T11:54:00;96165.41;;;24.08
71640;BMP280;60912;48.968;10.124;2023-07-29T11:56:35;96162.06;;;23.92
71640;BMP280;60912;48.968;10.124;2023-07-29T11:59:04;96157.72;;;24.31
71640;BMP280;60912;48.968;10.124;2023-07-29T12:04:17;96163.97;;;24.70
71640;BMP280;60912;48.968;10.124;2023-07-29T12:06:50;96148.38;;;24.91
71640;BMP280;60912;48.968;10.124;2023-07-29T12:09:19;96147.53;;;25.10
71640;BMP280;60912;48.968;10.124;2023-07-29T12:11:53;96143.03;;;25.01
71640;BMP280;60912;48.968;10.124;2023-07-29T12:14:29;96143.81;;;25.27
71640;BMP280;60912;48.968;10.124;2023-07-29T12:17:04;96136.84;;;25.30
71640;BMP280;60912;48.968;10.124;2023-07-29T12:19:46;96131.78;;;25.51
71640;BMP280;60912;48.968;10.124;2023-07-29T12:22:12;96132.72;;;25.59
71640;BMP280;60912;48.968;10.124;2023-07-29T12:31:09;96123.25;;;25.74
71640;BMP280;60912;48.968;10.124;2023-07-29T12:33:42;96118.34;;;25.75
71640;BMP280;60912;48.968;10.124;2023-07-29T12:36:36;96115.91;;;25.91
71640;BMP280;60912;48.968;10.124;2023-07-29T12:42:07;96110.88;;;26.15
71640;BMP280;60912;48.968;10.124;2023-07-29T12:44:35;96113.75;;;26.17
71640;BMP280;60912;48.968;10.124;2023-07-29T12:47:15;96111.59;;;26.16
71640;BMP280;60912;48.968;10.124;2023-07-29T12:49:47;96117.88;;;26.12
71640;BMP280;60912;48.968;10.124;2023-07-29T12:52:16;96111.69;;;26.20
71640;BMP280;60912;48.968;10.124;2023-07-29T12:54:53;96100.94;;;26.12
71640;BMP280;60912;48.968;10.124;2023-07-29T12:57:23;96100.88;;;26.10
71640;BMP280;60912;48.968;10.124;2023-07-29T12:59:58;96095.34;;;26.16
71640;BMP280;60912;48.968;10.124;2023-07-29T13:02:34;96096.78;;;26.17
71640;BMP280;60912;48.968;10.124;2023-07-29T13:05:19;96103.28;;;25.94
71640;BMP280;60912;48.968;10.124;2023-07-29T13:07:50;96097.16;;;26.03
71640;BMP280;60912;48.968;10.124;2023-07-29T13:10:24;96125.72;;;26.45
71640;BMP280;60912;48.968;10.124;2023-07-29T13:12:49;96118.44;;;26.66
71640;BMP280;60912;48.968;10.124;2023-07-29T13:15:32;96114.53;;;26.81
71640;BMP280;60912;48.968;10.124;2023-07-29T13:18:00;96120.44;;;26.61
71640;BMP280;60912;48.968;10.124;2023-07-29T13:20:31;96120.44;;;26.61
71640;BMP280;60912;48.968;10.124;2023-07-29T13:23:09;96129.22;;;26.74
71640;BMP280;60912;48.968;10.124;2023-07-29T13:25:57;96113.13;;;26.82
71640;BMP280;60912;48.968;10.124;2023-07-29T13:28:33;96108.59;;;27.01
71640;BMP280;60912;48.968;10.124;2023-07-29T13:31:14;96100.09;;;26.67
71640;BMP280;60912;48.968;10.124;2023-07-29T13:33:45;96112.81;;;26.36
71640;BMP280;60912;48.968;10.124;2023-07-29T13:36:20;96101.50;;;26.36
71640;BMP280;60912;48.968;10.124;2023-07-29T13:38:54;96096.84;;;26.49
71640;BMP280;60912;48.968;10.124;2023-07-29T13:41:22;96103.06;;;26.73
71640;BMP280;60912;48.968;10.124;2023-07-29T13:43:51;96090.22;;;27.02
71640;BMP280;60912;48.968;10.124;2023-07-29T13:46:25;96103.56;;;26.63
71640;BMP280;60912;48.968;10.124;2023-07-29T13:48:54;96098.91;;;26.78
71640;BMP280;60912;48.968;10.124;2023-07-29T13:51:31;96106.81;;;26.84
71640;BMP280;60912;48.968;10.124;2023-07-29T13:53:57;96100.66;;;26.93
71640;BMP280;60912;48.968;10.124;2023-07-29T13:56:24;96095.97;;;27.06
71640;BMP280;60912;48.968;10.124;2023-07-29T13:59:08;96101.34;;;26.60
71640;BMP280;60912;48.968;10.124;2023-07-29T14:01:39;96108.88;;;26.49
71640;BMP280;60912;48.968;10.124;2023-07-29T14:04:10;96109.31;;;26.69
71640;BMP280;60912;48.968;10.124;2023-07-29T14:06:36;96109.81;;;26.60
71640;BMP280;60912;48.968;10.124;2023-07-29T14:09:10;96104.81;;;26.58
71640;BMP280;60912;48.968;10.124;2023-07-29T14:11:44;96101.78;;;26.80
71640;BMP280;60912;48.968;10.124;2023-07-29T14:14:18;96099.22;;;26.92
71640;BMP280;60912;48.968;10.124;2023-07-29T14:16:55;96097.16;;;26.95
71640;BMP280;60912;48.968;10.124;2023-07-29T14:19:29;96107.63;;;26.88
71640;BMP280;60912;48.968;10.124;2023-07-29T14:22:00;96102.44;;;26.79
71640;BMP280;60912;48.968;10.124;2023-07-29T14:24:58;96099.44;;;27.02
71640;BMP280;60912;48.968;10.124;2023-07-29T14:27:39;96089.44;;;26.63
71640;BMP280;60912;48.968;10.124;2023-07-29T14:30:37;96086.31;;;26.83
71640;BMP280;60912;48.968;10.124;2023-07-29T14:33:15;96077.28;;;26.59
71640;BMP280;60912;48.968;10.124;2023-07-29T14:35:57;96065.38;;;26.62
71640;BMP280;60912;48.968;10.124;2023-07-29T14:38:55;96064.25;;;26.78
71640;BMP280;60912;48.968;10.124;2023-07-29T14:47:28;96063.38;;;27.41
71640;BMP280;60912;48.968;10.124;2023-07-29T14:50:36;96071.41;;;27.16
71640;BMP280;60912;48.968;10.124;2023-07-29T14:56:09;96076.56;;;26.90
71640;BMP280;60912;48.968;10.124;2023-07-29T14:58:42;96086.31;;;27.19
71640;BMP280;60912;48.968;10.124;2023-07-29T15:01:10;96084.44;;;27.31
71640;BMP280;60912;48.968;10.124;2023-07-29T15:03:41;96086.31;;;27.19
71640;BMP280;60912;48.968;10.124;2023-07-29T15:06:09;96074.47;;;27.28
71640;BMP280;60912;48.968;10.124;2023-07-29T15:08:37;96086.03;;;27.05
71640;BMP280;60912;48.968;10.124;2023-07-29T15:11:11;96092.53;;;26.78
71640;BMP280;60912;48.968;10.124;2023-07-29T15:13:45;96081.06;;;26.69
71640;BMP280;60912;48.968;10.124;2023-07-29T15:16:26;96091.09;;;26.77
71640;BMP280;60912;48.968;10.124;2023-07-29T15:19:12;96085.25;;;27.00
71640;BMP280;60912;48.968;10.124;2023-07-29T15:21:40;96078.09;;;27.31
71640;BMP280;60912;48.968;10.124;2023-07-29T15:24:17;96090.22;;;27.02
71640;BMP280;60912;48.968;10.124;2023-07-29T15:26:50;96086.16;;;26.77
71640;BMP280;60912;48.968;10.124;2023-07-29T15:29:24;96080.81;;;26.57
71640;BMP280;60912;48.968;10.124;2023-07-29T15:31:55;96082.44;;;26.68
71640;BMP280;60912;48.968;10.124;2023-07-29T15:34:28;96075.16;;;26.57
71640;BMP280;60912;48.968;10.124;2023-07-29T15:37:09;96077.78;;;26.49
71640;BMP280;60912;48.968;10.124;2023-07-29T15:39:43;96070.16;;;26.56
71640;BMP280;60912;48.968;10.124;2023-07-29T15:42:23;96091.59;;;26.67
71640;BMP280;60912;48.968;10.124;2023-07-29T15:45:55;96087.69;;;26.48
71640;BMP280;60912;48.968;10.124;2023-07-29T15:48:35;96087.59;;;26.46
71640;BMP280;60912;48.968;10.124;2023-07-29T15:51:25;96081.91;;;26.44
71640;BMP280;60912;48.968;10.124;2023-07-29T15:53:54;96086.16;;;26.45
71640;BMP280;60912;48.968;10.124;2023-07-29T15:56:31;96084.28;;;26.56
71640;BMP280;60912;48.968;10.124;2023-07-29T15:59:10;96076.56;;;26.58
71640;BMP280;60912;48.968;10.124;2023-07-29T16:01:39;96072.22;;;26.53
71640;BMP280;60912;48.968;10.124;2023-07-29T16:04:07;96073.09;;;26.60
71640;BMP280;60912;48.968;10.124;2023-07-29T16:06:40;96074.66;;;26.67